Flugplatz Leer-Papenburg

EDWF · 下萨克森, 德国

罗盘
风向 的 风向 的 风向 到 风向 260° Leer-Papenburg Airport 8/26
风: 15 kt, 4 beaufort

15 kt

改变
0 ft 1.000 2.000 3.000 4.000 5.000
Cloud Cloud
FEW 600
Cloud Cloud Cloud Cloud Cloud Cloud
BKN 700
Cloud Cloud Cloud Cloud Cloud Cloud Cloud Cloud
OVC 800
METAR EHGG 311055Z AUTO 26015KT 210V300 3300 BR FEW006 BKN007 OVC008 07/06 Q1015 TEMPO 5000 BKN012

METAR Leer-Papenburg Airport - EDWF

Leer-Papenburg Airport是,德国中的小机场。 该机场有一条跑道: 8/26. 该领域的国际民航组织标志是EDWF.

这份报告是针对2023年1月31日 11:55, 当地时间在Groningen Airport Eelde进行的。

机场观察

风向为260°,速度为15 kt。 风向在210°和300°之间变化。

可见度为3,3 km。

有几云在600 ft的高度, 碎云在700 ft的高度 和 乌云密布在800 ft的高度。 破损或更高的上限为700 ft。

当前天气为薄雾。 温度为7 °C,阵风为2 °C。 露点为6 °C,相对湿度为93%。 海平面上的气压为1015 hPa (QNH)。

发展趋势

  • 暂时的

    可变方向的风很小或没有。 可见性变为5 km。 碎云在1.200 ft的高度.

白天

今天,太阳从08:16升起,在17:10降落。 这适用于Leer-Papenburg Airport,世界夏令时可能有所不同。 当地时间与世界标准时间之间的时差为+1 小时。 当前,没有夏令时有效。

公司介绍

我们没有关于这个机场的公司信息。

体会

到Vliegles.nl去找飞行课程,跳伞和其他飞行体验。 浏览页面,了解Leer-Papenburg Airport附近所有可用的活动。 你也可以使用搜索功能来寻找你所在地附近的特定飞行课程、跳伞或其他飞行体验。

跑道

Id 标题 侧风 逆风 侧风 %
8/26 079°-259° 15 kt 2 %

逆风成分最大的方向会被突出显示,并用于横风计算。 这并不一定意味着这个方向在使用。

乌云

600 ft FEW 几云
700 ft BKN 碎云
800 ft OVC 乌云密布
1.200 ft BKN 暂时的 碎云

温度 & 天气

天气 薄雾
温度 7 °C
露点 6 °C
相对湿度 93%
风寒 2 °C
Kp-index 2 (0-9)

白天

日出
08:19
中午
12:47
日落
17:14 (4:56)

小工具

你想在你的网站上有一个关于Leer-Papenburg Airport的当前航空天气(METAR)的小部件吗?

显示HTML代码

我们和第三方通过cookies跟踪您在我们网站上的互联网行为。如果你继续,我们认为你同意我们的饼干政策